Time;durP1;ratioP1;P1;durP2;ratioP2;P2;SDS_P1;SDS_P2;PMS_P1;PMS_P2;Temp;Humidity;BMP_temperature;BMP_pressure;BME280_temperature;BME280_humidity;BME280_pressure;Samples;Min_cycle;Max_cycle;Signal;HPM_P1;HPM_P2
2022/05/02 00:00:02;;;;;;;;;;;10.70;99.90;;;;;;5062125;28;20234;-66
2022/05/02 00:02:29;;;;;;;;;;;10.60;99.90;;;;;;5058818;28;20224;-68
2022/05/02 00:04:55;;;;;;;;;;;10.60;99.90;;;;;;5070904;28;20123;-66
2022/05/02 00:07:22;;;;;;;;;;;10.60;99.90;;;;;;5062706;28;20251;-66
2022/05/02 00:09:48;;;;;;;;;;;10.60;99.90;;;;;;5062972;28;19921;-66
2022/05/02 00:12:15;;;;;;;;;;;10.60;99.90;;;;;;5062462;28;19928;-70
2022/05/02 00:14:43;;;;;;;;;;;10.50;99.90;;;;;;5062546;28;19927;-69
2022/05/02 00:17:10;;;;;;;;;;;10.60;99.90;;;;;;5062410;28;20242;-68
2022/05/02 00:19:36;;;;;;;;;;;10.60;99.90;;;;;;5063820;28;19967;-68
2022/05/02 00:22:03;;;;;;;;;;;10.50;99.90;;;;;;5065929;28;19925;-68
2022/05/02 00:24:30;;;;;;;;;;;10.50;99.90;;;;;;5066014;28;20147;-70
2022/05/02 00:26:57;;;;;;;;;;;10.50;99.90;;;;;;5066358;28;19959;-67
2022/05/02 00:29:24;;;;;;;;;;;10.50;99.90;;;;;;5045682;28;19967;-68
2022/05/02 00:31:52;;;;;;;;;;;10.50;99.90;;;;;;5047147;28;19928;-69
2022/05/02 00:34:18;;;;;;;;;;;10.40;99.90;;;;;;5066074;28;19927;-68
2022/05/02 00:36:45;;;;;;;;;;;10.40;99.90;;;;;;5066140;28;19920;-66
2022/05/02 00:39:11;;;;;;;;;;;10.40;99.90;;;;;;5066166;28;19928;-66
2022/05/02 00:41:38;;;;;;;;;;;10.40;99.90;;;;;;5066248;28;19928;-68
2022/05/02 00:44:05;;;;;;;;;;;10.50;99.90;;;;;;5065594;28;19935;-65
2022/05/02 00:46:32;;;;;;;;;;;10.40;99.90;;;;;;5065842;28;20116;-66
2022/05/02 00:49:01;;;;;;;;;;;10.40;99.90;;;;;;5065461;28;19921;-66
2022/05/02 00:51:28;;;;;;;;;;;10.40;99.90;;;;;;5066316;28;19927;-66
2022/05/02 00:53:54;;;;;;;;;;;10.40;99.90;;;;;;5065462;28;19921;-70
2022/05/02 00:56:21;;;;;;;;;;;10.40;99.90;;;;;;5074242;28;19928;-69
2022/05/02 00:58:49;;;;;;;;;;;10.40;99.90;;;;;;5085985;28;19958;-68
2022/05/02 01:01:15;;;;;;;;;;;10.30;99.90;;;;;;5086137;28;19928;-68
2022/05/02 01:03:42;;;;;;;;;;;10.40;99.90;;;;;;5068878;28;19921;-68
2022/05/02 01:08:55;;;;;;;;;;;10.30;99.90;;;;;;5065696;28;19928;-66
2022/05/02 01:11:22;;;;;;;;;;;10.30;99.90;;;;;;5065911;28;19932;-66
2022/05/02 01:13:49;;;;;;;;;;;10.30;99.90;;;;;;5065218;28;19921;-66
2022/05/02 01:16:16;;;;;;;;;;;10.30;99.90;;;;;;5065255;28;20225;-66
2022/05/02 01:18:43;;;;;;;;;;;10.30;99.90;;;;;;5065698;28;19921;-66
2022/05/02 01:21:14;;;;;;;;;;;10.30;99.90;;;;;;5065424;28;19921;-66
2022/05/02 01:23:41;;;;;;;;;;;10.20;99.90;;;;;;5064515;28;19927;-66
2022/05/02 01:26:07;;;;;;;;;;;10.30;99.90;;;;;;5064334;28;19927;-68
2022/05/02 01:28:40;;;;;;;;;;;10.30;99.90;;;;;;5065279;28;19942;-66
2022/05/02 01:31:07;;;;;;;;;;;10.20;99.90;;;;;;5064878;28;19928;-66
2022/05/02 01:33:34;;;;;;;;;;;10.20;99.90;;;;;;5065389;28;19921;-66
2022/05/02 01:36:00;;;;;;;;;;;10.20;99.90;;;;;;5064921;28;20139;-66
2022/05/02 01:38:28;;;;;;;;;;;10.20;99.90;;;;;;5065020;28;19921;-66
2022/05/02 01:40:55;;;;;;;;;;;10.20;99.90;;;;;;5065161;28;19921;-66
2022/05/02 01:43:21;;;;;;;;;;;10.20;99.90;;;;;;5065239;28;19920;-67
2022/05/02 01:45:48;;;;;;;;;;;10.20;99.90;;;;;;5064206;28;19920;-67
2022/05/02 01:48:15;;;;;;;;;;;10.20;99.90;;;;;;5064099;28;19932;-67
2022/05/02 01:50:41;;;;;;;;;;;10.20;99.90;;;;;;5084903;28;19921;-66
2022/05/02 01:53:08;;;;;;;;;;;10.10;99.90;;;;;;5068308;28;19927;-66
2022/05/02 01:55:36;;;;;;;;;;;10.10;99.90;;;;;;5064216;28;20212;-66
2022/05/02 01:58:02;;;;;;;;;;;10.10;99.90;;;;;;5064901;28;19929;-67
2022/05/02 02:00:29;;;;;;;;;;;10.10;99.90;;;;;;5068725;28;19920;-66
2022/05/02 02:02:55;;;;;;;;;;;10.10;99.90;;;;;;5084923;28;19921;-66
2022/05/02 02:08:06;;;;;;;;;;;10.00;99.90;;;;;;5076013;28;19924;-66
2022/05/02 02:10:33;;;;;;;;;;;10.00;99.90;;;;;;5064769;28;19921;-66
2022/05/02 02:13:01;;;;;;;;;;;9.90;99.90;;;;;;5064422;28;19920;-66
2022/05/02 02:15:27;;;;;;;;;;;10.00;99.90;;;;;;5064224;28;19927;-66
2022/05/02 02:17:54;;;;;;;;;;;9.90;99.90;;;;;;5064311;28;19925;-66
2022/05/02 02:20:20;;;;;;;;;;;9.90;99.90;;;;;;5074556;28;20115;-66
2022/05/02 02:22:47;;;;;;;;;;;9.90;99.90;;;;;;5064366;28;19921;-67
2022/05/02 02:25:14;;;;;;;;;;;9.90;99.90;;;;;;5063925;28;19937;-66
2022/05/02 02:27:40;;;;;;;;;;;9.90;99.90;;;;;;5064636;28;19920;-66
2022/05/02 02:30:09;;;;;;;;;;;9.80;99.90;;;;;;5064709;28;19959;-68
2022/05/02 02:32:36;;;;;;;;;;;9.80;99.90;;;;;;5060969;28;19928;-66
2022/05/02 02:35:02;;;;;;;;;;;9.80;99.90;;;;;;5064234;28;19921;-66
2022/05/02 02:37:29;;;;;;;;;;;9.70;99.90;;;;;;5063071;28;19924;-68
2022/05/02 02:39:56;;;;;;;;;;;9.70;99.90;;;;;;5063685;28;19920;-66
2022/05/02 02:42:23;;;;;;;;;;;9.70;99.90;;;;;;5071493;28;19920;-66
2022/05/02 02:44:50;;;;;;;;;;;9.70;99.90;;;;;;5074850;28;19920;-66
2022/05/02 02:47:18;;;;;;;;;;;9.60;99.90;;;;;;5063204;28;19927;-67
2022/05/02 02:49:45;;;;;;;;;;;9.60;99.90;;;;;;5083851;28;20026;-66
2022/05/02 02:52:11;;;;;;;;;;;9.60;99.90;;;;;;5068673;28;19924;-68
2022/05/02 02:54:41;;;;;;;;;;;9.60;99.90;;;;;;5060477;28;19933;-65
2022/05/02 02:57:08;;;;;;;;;;;9.60;99.90;;;;;;5062793;28;20115;-67
2022/05/02 02:59:34;;;;;;;;;;;9.50;99.90;;;;;;5064202;28;19920;-66
2022/05/02 03:02:01;;;;;;;;;;;9.50;99.90;;;;;;5083517;28;19920;-66
2022/05/02 03:07:13;;;;;;;;;;;9.50;99.90;;;;;;5062692;28;19927;-66
2022/05/02 03:09:40;;;;;;;;;;;9.50;99.90;;;;;;5060571;28;19929;-67
2022/05/02 03:12:07;;;;;;;;;;;9.40;99.90;;;;;;5068969;28;19931;-67
2022/05/02 03:14:33;;;;;;;;;;;9.30;99.90;;;;;;5082432;28;20178;-66
2022/05/02 03:17:00;;;;;;;;;;;9.30;99.90;;;;;;5062883;28;19920;-66
2022/05/02 03:19:27;;;;;;;;;;;9.30;99.90;;;;;;5063000;28;19920;-68
2022/05/02 03:21:54;;;;;;;;;;;9.30;99.90;;;;;;5063375;28;19963;-68
2022/05/02 03:24:21;;;;;;;;;;;9.20;99.90;;;;;;5063220;28;20174;-66
2022/05/02 03:26:48;;;;;;;;;;;9.20;99.90;;;;;;5061836;28;20159;-68
2022/05/02 03:29:14;;;;;;;;;;;9.20;99.90;;;;;;5063293;28;19921;-68
2022/05/02 03:31:41;;;;;;;;;;;9.20;99.90;;;;;;5063156;28;19928;-68
2022/05/02 03:34:07;;;;;;;;;;;9.20;99.90;;;;;;5063054;28;19921;-66
2022/05/02 03:36:34;;;;;;;;;;;9.10;99.90;;;;;;5061624;28;20275;-68
2022/05/02 03:39:03;;;;;;;;;;;9.10;99.90;;;;;;5060153;28;19984;-69
2022/05/02 03:41:30;;;;;;;;;;;9.10;99.90;;;;;;5062930;28;19921;-66
2022/05/02 03:43:56;;;;;;;;;;;9.10;99.90;;;;;;5062952;28;20212;-65
2022/05/02 03:46:23;;;;;;;;;;;9.00;99.90;;;;;;5061859;28;19921;-66
2022/05/02 03:48:50;;;;;;;;;;;9.10;99.90;;;;;;5060695;28;20212;-66
2022/05/02 03:51:16;;;;;;;;;;;9.00;99.90;;;;;;5063063;28;19920;-66
2022/05/02 03:53:43;;;;;;;;;;;9.00;99.90;;;;;;5062891;28;19927;-66
2022/05/02 03:56:12;;;;;;;;;;;8.90;99.90;;;;;;5053237;28;19921;-66
2022/05/02 03:58:39;;;;;;;;;;;8.90;99.90;;;;;;5056776;28;19920;-68
2022/05/02 04:01:05;;;;;;;;;;;8.80;99.90;;;;;;5076478;28;19928;-68
2022/05/02 04:03:32;;;;;;;;;;;8.80;99.90;;;;;;5066932;28;19921;-66
2022/05/02 04:05:58;;;;;;;;;;;8.70;99.90;;;;;;5070726;28;20115;-68
2022/05/02 04:08:25;;;;;;;;;;;8.70;99.90;;;;;;5067103;28;20231;-68
2022/05/02 04:10:51;;;;;;;;;;;8.70;99.90;;;;;;5064042;28;19921;-67
2022/05/02 04:13:19;;;;;;;;;;;8.70;99.90;;;;;;5066775;28;19927;-66
2022/05/02 04:15:46;;;;;;;;;;;8.70;99.90;;;;;;5065801;28;20171;-65
2022/05/02 04:18:12;;;;;;;;;;;8.60;99.90;;;;;;5066604;28;20124;-65
2022/05/02 04:20:39;;;;;;;;;;;8.60;99.90;;;;;;5066215;28;19921;-67
2022/05/02 04:23:06;;;;;;;;;;;8.60;99.90;;;;;;5066406;28;19921;-68
2022/05/02 04:25:32;;;;;;;;;;;8.60;99.90;;;;;;5063695;28;19920;-66
2022/05/02 04:27:59;;;;;;;;;;;8.60;99.90;;;;;;5049899;28;19996;-67
2022/05/02 04:30:28;;;;;;;;;;;8.50;99.90;;;;;;5066332;28;19921;-67
2022/05/02 04:32:54;;;;;;;;;;;8.50;99.90;;;;;;5066175;28;19936;-68
2022/05/02 04:35:21;;;;;;;;;;;8.50;99.90;;;;;;5081250;28;19935;-68
2022/05/02 04:37:47;;;;;;;;;;;8.50;99.90;;;;;;5084003;28;19928;-66
2022/05/02 04:40:15;;;;;;;;;;;8.60;99.90;;;;;;5077041;28;19921;-66
2022/05/02 04:42:42;;;;;;;;;;;8.60;99.90;;;;;;5066480;28;19921;-68
2022/05/02 04:45:14;;;;;;;;;;;8.60;99.90;;;;;;5062332;28;19928;-68
2022/05/02 04:47:42;;;;;;;;;;;8.60;99.90;;;;;;5085568;28;19942;-68
2022/05/02 04:50:09;;;;;;;;;;;8.60;99.90;;;;;;5083839;28;19929;-66
2022/05/02 04:52:35;;;;;;;;;;;8.70;99.90;;;;;;5077048;28;19924;-66
2022/05/02 04:55:02;;;;;;;;;;;8.70;99.90;;;;;;5080633;28;19927;-66
2022/05/02 04:57:29;;;;;;;;;;;8.70;99.90;;;;;;5064428;28;20187;-68
2022/05/02 04:59:56;;;;;;;;;;;8.80;99.90;;;;;;5065730;28;19924;-68
2022/05/02 05:02:22;;;;;;;;;;;8.80;99.90;;;;;;5063508;28;19921;-69
2022/05/02 05:04:58;;;;;;;;;;;8.80;99.90;;;;;;5057777;28;20238;-69
2022/05/02 05:07:25;;;;;;;;;;;8.80;99.90;;;;;;5065706;28;19927;-68
2022/05/02 05:09:51;;;;;;;;;;;8.70;99.90;;;;;;5069513;28;19927;-69
2022/05/02 05:12:23;;;;;;;;;;;8.70;99.90;;;;;;5086433;28;19960;-69
2022/05/02 05:17:45;;;;;;;;;;;8.70;99.90;;;;;;5082664;28;19923;-66
2022/05/02 05:20:18;;;;;;;;;;;8.80;99.90;;;;;;5083068;28;20215;-68
2022/05/02 05:22:55;;;;;;;;;;;8.90;99.90;;;;;;5085499;28;19927;-68
2022/05/02 05:25:29;;;;;;;;;;;9.00;99.90;;;;;;5080734;22;19999;-67
2022/05/02 05:28:05;;;;;;;;;;;9.00;99.90;;;;;;5051426;28;19921;-68
2022/05/02 05:30:37;;;;;;;;;;;9.10;99.90;;;;;;5045080;28;19928;-67
2022/05/02 05:33:05;;;;;;;;;;;9.20;99.90;;;;;;5045693;28;19927;-65
2022/05/02 05:35:39;;;;;;;;;;;9.30;99.90;;;;;;5045266;28;19925;-68
2022/05/02 05:38:10;;;;;;;;;;;9.40;99.90;;;;;;5045771;28;19975;-67
2022/05/02 05:40:39;;;;;;;;;;;9.50;99.90;;;;;;5044695;28;19952;-65
2022/05/02 05:43:15;;;;;;;;;;;9.60;99.90;;;;;;5044944;28;19921;-66
2022/05/02 05:45:59;;;;;;;;;;;9.60;99.90;;;;;;5045023;28;19933;-65
2022/05/02 05:48:30;;;;;;;;;;;9.70;99.90;;;;;;5083786;28;19921;-66
2022/05/02 05:51:04;;;;;;;;;;;9.70;99.90;;;;;;5079319;28;20203;-66
2022/05/02 05:53:36;;;;;;;;;;;9.80;99.90;;;;;;5105479;28;19927;-66
2022/05/02 05:56:07;;;;;;;;;;;9.90;99.90;;;;;;5084535;28;19920;-66
2022/05/02 05:58:45;;;;;;;;;;;9.90;99.90;;;;;;5084773;28;19986;-65
2022/05/02 06:01:14;;;;;;;;;;;10.00;99.90;;;;;;5100971;28;19987;-66
2022/05/02 06:03:50;;;;;;;;;;;10.10;99.90;;;;;;5092005;28;19921;-66
2022/05/02 06:06:18;;;;;;;;;;;10.20;99.90;;;;;;5084678;28;19920;-66
2022/05/02 06:08:45;;;;;;;;;;;10.30;99.90;;;;;;5084725;28;20191;-66
2022/05/02 06:11:12;;;;;;;;;;;10.40;99.90;;;;;;5083481;28;19927;-66
2022/05/02 06:13:39;;;;;;;;;;;10.40;99.90;;;;;;5088555;28;20324;-66
2022/05/02 06:18:52;;;;;;;;;;;10.70;99.90;;;;;;5104216;28;19923;-66
2022/05/02 06:21:21;;;;;;;;;;;10.80;99.90;;;;;;5086716;28;19927;-65
2022/05/02 06:23:50;;;;;;;;;;;10.90;99.90;;;;;;5088147;28;19932;-65
2022/05/02 06:26:17;;;;;;;;;;;11.00;99.90;;;;;;5104020;28;19951;-66
2022/05/02 06:28:45;;;;;;;;;;;11.10;99.90;;;;;;5104598;28;19920;-66
2022/05/02 06:31:14;;;;;;;;;;;11.20;99.90;;;;;;5104649;28;19927;-65
2022/05/02 06:33:42;;;;;;;;;;;11.30;99.90;;;;;;5104349;28;19920;-65
2022/05/02 06:36:18;;;;;;;;;;;11.30;99.90;;;;;;5103283;28;20274;-66
2022/05/02 06:38:51;;;;;;;;;;;11.50;99.90;;;;;;5104108;28;19983;-65
2022/05/02 06:41:25;;;;;;;;;;;11.60;99.90;;;;;;5103759;28;19920;-66
2022/05/02 06:43:54;;;;;;;;;;;11.60;99.90;;;;;;5103818;28;19922;-64
2022/05/02 06:46:23;;;;;;;;;;;11.80;99.90;;;;;;5103541;28;19981;-64
2022/05/02 06:48:51;;;;;;;;;;;11.80;99.90;;;;;;5104023;28;19942;-64
2022/05/02 06:51:22;;;;;;;;;;;11.90;99.90;;;;;;5103637;28;19920;-65
2022/05/02 06:54:11;;;;;;;;;;;12.00;99.90;;;;;;5119069;28;20233;-65
2022/05/02 06:56:42;;;;;;;;;;;12.00;99.90;;;;;;5103771;28;20207;-65
2022/05/02 06:59:15;;;;;;;;;;;12.10;99.90;;;;;;5104086;28;20112;-65
2022/05/02 07:01:48;;;;;;;;;;;12.20;99.90;;;;;;5104015;28;19920;-65
2022/05/02 07:04:20;;;;;;;;;;;12.20;99.90;;;;;;5104065;28;19931;-64
2022/05/02 07:06:57;;;;;;;;;;;12.30;99.90;;;;;;5103673;28;19927;-65
2022/05/02 07:09:28;;;;;;;;;;;12.30;99.90;;;;;;5103934;28;19921;-65
2022/05/02 07:12:04;;;;;;;;;;;12.40;99.90;;;;;;5103878;28;19926;-65
2022/05/02 07:14:33;;;;;;;;;;;12.40;99.90;;;;;;5103715;28;20203;-64
2022/05/02 07:17:03;;;;;;;;;;;12.50;99.90;;;;;;5103247;28;19920;-64
2022/05/02 07:19:31;;;;;;;;;;;12.60;99.90;;;;;;5103639;28;19924;-64
2022/05/02 07:21:58;;;;;;;;;;;12.70;99.90;;;;;;5098317;28;19958;-65
2022/05/02 07:24:36;;;;;;;;;;;12.70;99.90;;;;;;5103357;28;19927;-65
2022/05/02 07:27:09;;;;;;;;;;;12.80;99.90;;;;;;5103574;28;19926;-65
2022/05/02 07:29:36;;;;;;;;;;;12.80;99.90;;;;;;5103451;28;19927;-64
2022/05/02 07:32:04;;;;;;;;;;;12.90;99.90;;;;;;5103377;28;19920;-65
2022/05/02 07:34:31;;;;;;;;;;;13.00;99.90;;;;;;5103248;28;19927;-65
2022/05/02 07:36:59;;;;;;;;;;;13.10;99.90;;;;;;5102269;28;19987;-65
2022/05/02 07:39:26;;;;;;;;;;;13.20;99.90;;;;;;5103466;28;19991;-66
2022/05/02 07:41:55;;;;;;;;;;;13.30;99.90;;;;;;5103318;28;19919;-64
2022/05/02 07:44:24;;;;;;;;;;;13.40;99.90;;;;;;5102137;28;19920;-66
2022/05/02 07:46:51;;;;;;;;;;;13.40;99.90;;;;;;5101356;28;20211;-65
2022/05/02 07:49:22;;;;;;;;;;;13.50;99.90;;;;;;5102847;28;19928;-66
2022/05/02 07:51:50;;;;;;;;;;;13.60;99.90;;;;;;5103680;28;19920;-65
2022/05/02 07:54:19;;;;;;;;;;;13.60;99.90;;;;;;5103044;28;19973;-65
2022/05/02 07:56:47;;;;;;;;;;;13.70;99.90;;;;;;5103426;28;19935;-65
2022/05/02 07:59:15;;;;;;;;;;;13.80;99.90;;;;;;5103093;28;19920;-65
2022/05/02 08:01:42;;;;;;;;;;;13.90;99.90;;;;;;5102931;28;19920;-66
2022/05/02 08:04:12;;;;;;;;;;;14.00;99.90;;;;;;5103510;28;19926;-65
2022/05/02 08:06:45;;;;;;;;;;;14.10;99.90;;;;;;5102984;28;19920;-65
2022/05/02 08:09:22;;;;;;;;;;;14.10;99.90;;;;;;5103185;28;19924;-65
2022/05/02 08:11:53;;;;;;;;;;;14.30;99.90;;;;;;5095665;28;19921;-66
2022/05/02 08:14:26;;;;;;;;;;;14.30;99.90;;;;;;5095444;28;19932;-65
2022/05/02 08:16:58;;;;;;;;;;;14.30;99.90;;;;;;5095133;28;19920;-65
2022/05/02 08:19:39;;;;;;;;;;;14.40;99.90;;;;;;5099155;28;19920;-65
2022/05/02 08:27:50;;;;;;;;;;;14.60;99.90;;;;;;5082744;28;19984;-65
2022/05/02 08:30:22;;;;;;;;;;;14.70;99.90;;;;;;5086489;28;19927;-66
2022/05/02 08:32:55;;;;;;;;;;;14.80;99.90;;;;;;5102606;28;20006;-66
2022/05/02 08:35:26;;;;;;;;;;;14.80;99.90;;;;;;5102577;28;20174;-65
2022/05/02 08:38:12;;;;;;;;;;;14.80;99.90;;;;;;5103017;28;19927;-68
2022/05/02 08:40:50;;;;;;;;;;;14.80;99.90;;;;;;5103626;28;19920;-65
2022/05/02 08:43:31;;;;;;;;;;;14.90;99.90;;;;;;5105871;28;20124;-66
2022/05/02 08:46:25;;;;;;;;;;;15.00;99.90;;;;;;5106105;28;20208;-65
2022/05/02 08:52:18;;;;;;;;;;;15.20;99.90;;;;;;5083078;28;20125;-65
2022/05/02 08:54:54;;;;;;;;;;;15.30;99.90;;;;;;5106112;28;19987;-65
2022/05/02 08:57:33;;;;;;;;;;;15.40;99.90;;;;;;5105919;28;19920;-64
2022/05/02 09:00:07;;;;;;;;;;;15.50;99.90;;;;;;5105985;28;19920;-65
2022/05/02 09:02:46;;;;;;;;;;;15.60;99.90;;;;;;5106572;28;19934;-65
2022/05/02 09:05:31;;;;;;;;;;;15.70;99.90;;;;;;5106075;28;19920;-66
2022/05/02 09:08:20;;;;;;;;;;;15.70;99.90;;;;;;5106006;28;20164;-65
2022/05/02 09:10:59;;;;;;;;;;;15.90;99.90;;;;;;5105572;28;19920;-65
2022/05/02 09:13:47;;;;;;;;;;;16.00;99.90;;;;;;5104946;28;19920;-65
2022/05/02 09:16:34;;;;;;;;;;;16.20;99.90;;;;;;5071808;28;20111;-65
2022/05/02 09:19:17;;;;;;;;;;;16.20;99.90;;;;;;5076853;28;19931;-65
2022/05/02 09:21:58;;;;;;;;;;;16.20;99.90;;;;;;5104320;28;19942;-65
2022/05/02 09:24:39;;;;;;;;;;;16.20;99.90;;;;;;5103884;28;19926;-64
2022/05/02 09:27:14;;;;;;;;;;;16.10;99.90;;;;;;5105127;28;19928;-64
2022/05/02 09:29:59;;;;;;;;;;;16.30;99.90;;;;;;5105826;28;19920;-64
2022/05/02 09:32:34;;;;;;;;;;;16.40;99.90;;;;;;5094645;28;19920;-65
2022/05/02 09:35:04;;;;;;;;;;;16.50;99.90;;;;;;5094366;28;19928;-66
2022/05/02 09:37:38;;;;;;;;;;;16.50;99.90;;;;;;5084980;28;20128;-65
2022/05/02 09:40:09;;;;;;;;;;;16.60;99.90;;;;;;5098957;28;19919;-65
2022/05/02 09:42:44;;;;;;;;;;;16.70;99.90;;;;;;5105582;28;20211;-64
2022/05/02 09:51:25;;;;;;;;;;;16.90;99.90;;;;;;5104975;28;19955;-65
2022/05/02 09:53:56;;;;;;;;;;;16.80;99.90;;;;;;5105211;28;19987;-65
2022/05/02 09:56:41;;;;;;;;;;;16.70;99.90;;;;;;5104698;28;19995;-65
2022/05/02 09:59:08;;;;;;;;;;;16.70;99.90;;;;;;5105110;28;19923;-66
2022/05/02 10:01:35;;;;;;;;;;;16.80;99.90;;;;;;5104935;28;19927;-65
2022/05/02 10:04:18;;;;;;;;;;;16.80;99.90;;;;;;5088128;28;19920;-66
2022/05/02 10:06:49;;;;;;;;;;;16.80;99.90;;;;;;5081819;28;20015;-65
2022/05/02 10:09:20;;;;;;;;;;;16.80;99.90;;;;;;5105056;28;19927;-65
2022/05/02 10:11:53;;;;;;;;;;;16.80;99.90;;;;;;5105127;28;19926;-64
2022/05/02 10:14:28;;;;;;;;;;;16.80;99.90;;;;;;5104732;28;19942;-65
2022/05/02 10:16:58;;;;;;;;;;;16.70;99.90;;;;;;5104354;28;19920;-65
2022/05/02 10:19:30;;;;;;;;;;;16.60;99.90;;;;;;5103922;28;20160;-65
2022/05/02 10:22:21;;;;;;;;;;;16.60;99.90;;;;;;5104572;28;19927;-65
2022/05/02 10:24:57;;;;;;;;;;;16.60;99.90;;;;;;5087814;28;19920;-65
2022/05/02 10:27:33;;;;;;;;;;;16.60;99.90;;;;;;5104062;28;19920;-65
2022/05/02 10:30:07;;;;;;;;;;;16.60;99.90;;;;;;5104630;28;19957;-64
2022/05/02 10:32:41;;;;;;;;;;;16.60;99.90;;;;;;5103437;28;19927;-65
2022/05/02 10:35:10;;;;;;;;;;;16.60;99.90;;;;;;5103488;28;19987;-65
2022/05/02 10:37:39;;;;;;;;;;;16.60;99.90;;;;;;5104039;28;19920;-65
2022/05/02 10:40:10;;;;;;;;;;;16.60;99.90;;;;;;5093656;28;20188;-65
2022/05/02 10:42:36;;;;;;;;;;;16.60;99.90;;;;;;5082155;28;19920;-66
2022/05/02 10:45:05;;;;;;;;;;;16.60;99.90;;;;;;5082434;28;19920;-65
2022/05/02 10:47:39;;;;;;;;;;;16.60;99.90;;;;;;5089020;28;19927;-65
2022/05/02 10:50:15;;;;;;;;;;;16.70;99.90;;;;;;5103766;28;20277;-65
2022/05/02 10:52:54;;;;;;;;;;;16.90;99.90;;;;;;5104546;28;19920;-65
2022/05/02 10:55:25;;;;;;;;;;;17.00;99.90;;;;;;5103141;28;19920;-65
2022/05/02 10:57:53;;;;;;;;;;;17.30;99.90;;;;;;5104445;28;19927;-66
2022/05/02 11:00:19;;;;;;;;;;;17.50;99.90;;;;;;5104113;28;19921;-65
2022/05/02 11:02:53;;;;;;;;;;;17.50;99.90;;;;;;5103390;28;19920;-65
2022/05/02 11:05:23;;;;;;;;;;;17.50;99.90;;;;;;5103647;28;19927;-66
2022/05/02 11:07:54;;;;;;;;;;;17.50;99.90;;;;;;5104066;28;19926;-65
2022/05/02 11:10:23;;;;;;;;;;;17.50;99.90;;;;;;5104275;28;19920;-65
2022/05/02 11:12:56;;;;;;;;;;;17.50;99.90;;;;;;5103647;28;19927;-66
2022/05/02 11:15:24;;;;;;;;;;;17.50;99.90;;;;;;5103242;28;19927;-65
2022/05/02 11:17:56;;;;;;;;;;;17.60;99.90;;;;;;5103797;28;19920;-65
2022/05/02 11:20:42;;;;;;;;;;;17.80;99.90;;;;;;5103668;28;19943;-65
2022/05/02 11:23:30;;;;;;;;;;;17.90;99.90;;;;;;5099958;28;19938;-65
2022/05/02 11:26:04;;;;;;;;;;;18.30;99.90;;;;;;5103463;28;19966;-65
2022/05/02 11:28:35;;;;;;;;;;;18.70;99.90;;;;;;5104025;28;19920;-65
2022/05/02 11:31:05;;;;;;;;;;;18.70;99.90;;;;;;5103555;28;19920;-66
2022/05/02 11:33:37;;;;;;;;;;;18.70;99.90;;;;;;5103692;28;19928;-65
2022/05/02 11:36:06;;;;;;;;;;;18.60;99.90;;;;;;5103532;28;19920;-64
2022/05/02 11:38:37;;;;;;;;;;;18.50;99.90;;;;;;5102608;28;19927;-64
2022/05/02 11:41:10;;;;;;;;;;;18.50;99.90;;;;;;5103523;28;19926;-63
2022/05/02 11:43:38;;;;;;;;;;;18.50;99.90;;;;;;5100885;28;19982;-65
2022/05/02 11:46:09;;;;;;;;;;;18.50;99.90;;;;;;5093382;28;19927;-65
2022/05/02 11:48:51;;;;;;;;;;;18.50;99.90;;;;;;5103585;28;19927;-64
2022/05/02 12:40:52;;;;;;;;;;;17.70;99.90;;;;;;5121768;27;19962;-72
2022/05/02 12:43:25;;;;;;;;;;;18.40;99.90;;;;;;5132454;28;20207;-74
2022/05/02 12:45:53;;;;;;;;;;;18.60;99.90;;;;;;5131148;28;20312;-72
2022/05/02 12:48:21;;;;;;;;;;;18.70;99.90;;;;;;5128710;28;19920;-72
2022/05/02 12:50:49;;;;;;;;;;;18.70;99.90;;;;;;5117396;28;19923;-73
2022/05/02 12:54:09;;;;;;;;;;;18.60;99.90;;;;;;5179491;22;19925;-92
2022/05/02 12:56:07;;;;;;;;;;;18.60;99.90;;;;;;5162279;27;20269;-93
2022/05/02 13:01:20;;;;;;;;;;;18.70;99.90;;;;;;5146389;28;19922;-92
2022/05/02 13:03:53;;;;;;;;;;;18.90;99.90;;;;;;5148437;28;19930;-93
2022/05/02 13:06:20;;;;;;;;;;;19.00;99.90;;;;;;5164804;22;20100;-67
2022/05/02 13:08:47;;;;;;;;;;;19.00;99.90;;;;;;5161911;27;19919;-67
2022/05/02 13:11:20;;;;;;;;;;;19.00;99.90;;;;;;5159377;27;19931;-66
2022/05/02 13:13:49;;;;;;;;;;;19.10;99.90;;;;;;5146044;27;20214;-67
2022/05/02 13:16:24;;;;;;;;;;;19.00;99.90;;;;;;5125664;28;20223;-66
2022/05/02 13:18:51;;;;;;;;;;;19.00;99.90;;;;;;5120352;28;19920;-67
2022/05/02 13:21:19;;;;;;;;;;;19.00;99.90;;;;;;5119613;28;20118;-66
2022/05/02 13:23:46;;;;;;;;;;;19.00;99.90;;;;;;5099548;28;19920;-67
2022/05/02 13:26:28;;;;;;;;;;;19.00;99.90;;;;;;5100162;28;19921;-67
2022/05/02 13:29:03;;;;;;;;;;;19.00;99.90;;;;;;5086732;28;19920;-67
2022/05/02 13:31:33;;;;;;;;;;;18.90;99.90;;;;;;5097547;28;19920;-67
2022/05/02 13:34:02;;;;;;;;;;;19.00;99.90;;;;;;5118214;28;19920;-67
2022/05/02 13:36:31;;;;;;;;;;;19.00;99.90;;;;;;5113402;28;19926;-69
2022/05/02 13:39:03;;;;;;;;;;;19.00;99.90;;;;;;5098693;28;19927;-68
2022/05/02 13:41:33;;;;;;;;;;;19.10;99.90;;;;;;5086539;28;19920;-69
2022/05/02 13:44:07;;;;;;;;;;;19.30;99.90;;;;;;5086043;28;19927;-67
2022/05/02 13:46:41;;;;;;;;;;;19.60;99.90;;;;;;5086674;28;19920;-67
2022/05/02 13:49:14;;;;;;;;;;;20.10;99.90;;;;;;5098162;28;19920;-67
2022/05/02 13:51:49;;;;;;;;;;;20.70;99.90;;;;;;5090143;28;19927;-67
2022/05/02 13:54:23;;;;;;;;;;;21.40;99.90;;;;;;5085667;28;20199;-67
2022/05/02 13:56:56;;;;;;;;;;;21.90;99.90;;;;;;5085667;28;20003;-67
2022/05/02 13:59:28;;;;;;;;;;;22.10;99.90;;;;;;5085363;28;19987;-66
2022/05/02 14:01:59;;;;;;;;;;;21.70;99.90;;;;;;5085835;28;19963;-67
2022/05/02 14:04:38;;;;;;;;;;;21.50;99.90;;;;;;5085676;28;19920;-67
2022/05/02 14:07:11;;;;;;;;;;;21.10;99.90;;;;;;5085404;28;20227;-67
2022/05/02 14:09:41;;;;;;;;;;;20.90;99.90;;;;;;5084740;28;19927;-67
2022/05/02 14:12:10;;;;;;;;;;;20.70;99.90;;;;;;5090152;28;19958;-67
2022/05/02 14:14:52;;;;;;;;;;;20.50;99.90;;;;;;5101045;28;19928;-67
2022/05/02 14:17:28;;;;;;;;;;;20.30;99.90;;;;;;5084938;28;19927;-68
2022/05/02 14:20:08;;;;;;;;;;;20.00;99.90;;;;;;5084439;28;19974;-67
2022/05/02 14:22:37;;;;;;;;;;;19.80;99.90;;;;;;5105971;28;19927;-67
2022/05/02 14:25:04;;;;;;;;;;;19.40;99.90;;;;;;5099946;28;20290;-66
2022/05/02 14:27:30;;;;;;;;;;;18.30;99.90;;;;;;5098354;28;19924;-65
2022/05/02 14:30:01;;;;;;;;;;;17.80;99.90;;;;;;5094776;28;19928;-65
2022/05/02 14:32:40;;;;;;;;;;;17.40;99.90;;;;;;5106090;28;19920;-65
2022/05/02 14:35:07;;;;;;;;;;;17.30;99.90;;;;;;5121915;28;19982;-66
2022/05/02 14:37:34;;;;;;;;;;;17.10;99.90;;;;;;5125998;28;19973;-66
2022/05/02 14:40:01;;;;;;;;;;;17.00;99.90;;;;;;5112699;28;19927;-66
2022/05/02 14:42:28;;;;;;;;;;;17.00;99.90;;;;;;5085598;28;20324;-66
2022/05/02 14:44:54;;;;;;;;;;;16.90;99.90;;;;;;5085126;28;19921;-65
2022/05/02 14:47:22;;;;;;;;;;;16.80;99.90;;;;;;5084074;28;19928;-65
2022/05/02 14:49:51;;;;;;;;;;;16.80;99.90;;;;;;5095133;28;19920;-65
2022/05/02 14:52:20;;;;;;;;;;;16.70;99.90;;;;;;5082921;28;19927;-66
2022/05/02 14:54:48;;;;;;;;;;;16.70;99.90;;;;;;5085685;28;20249;-66
2022/05/02 14:57:15;;;;;;;;;;;16.60;99.90;;;;;;5084654;28;19995;-66
2022/05/02 14:59:44;;;;;;;;;;;16.50;99.90;;;;;;5082013;28;20108;-66
2022/05/02 15:02:11;;;;;;;;;;;16.40;99.90;;;;;;5093072;28;20150;-66
2022/05/02 15:04:39;;;;;;;;;;;16.30;99.90;;;;;;5095159;28;19920;-67
2022/05/02 15:07:09;;;;;;;;;;;16.40;99.90;;;;;;5084465;28;19942;-66
2022/05/02 15:12:28;;;;;;;;;;;16.40;99.90;;;;;;5088935;28;19938;-66
2022/05/02 15:15:06;;;;;;;;;;;16.50;99.90;;;;;;5086583;28;19936;-66
2022/05/02 15:17:34;;;;;;;;;;;16.50;99.90;;;;;;5098392;28;19955;-65
2022/05/02 15:20:08;;;;;;;;;;;16.20;99.90;;;;;;5103489;28;19928;-66
2022/05/02 15:22:40;;;;;;;;;;;16.10;99.90;;;;;;5104406;28;19942;-67
2022/05/02 15:25:09;;;;;;;;;;;15.90;99.90;;;;;;5099315;28;19966;-64
2022/05/02 15:38:52;;;;;;;;;;;15.60;99.90;;;;;;5104277;28;20022;-66
2022/05/02 15:41:40;;;;;;;;;;;15.60;99.90;;;;;;5104688;28;19958;-67
2022/05/02 15:44:08;;;;;;;;;;;15.60;99.90;;;;;;5098676;28;19920;-67
2022/05/02 15:46:40;;;;;;;;;;;15.50;99.90;;;;;;5085029;28;19925;-66
2022/05/02 15:49:07;;;;;;;;;;;15.50;99.90;;;;;;5084457;28;20089;-66
2022/05/02 15:51:42;;;;;;;;;;;15.60;99.90;;;;;;5084207;28;19920;-67
2022/05/02 15:54:33;;;;;;;;;;;15.50;99.90;;;;;;5084795;28;19983;-66
2022/05/02 15:57:15;;;;;;;;;;;15.50;99.90;;;;;;5084478;28;19920;-67
2022/05/02 15:59:43;;;;;;;;;;;15.50;99.90;;;;;;5083549;28;19928;-67
2022/05/02 16:02:10;;;;;;;;;;;15.50;99.90;;;;;;5084510;28;19942;-67
2022/05/02 16:04:39;;;;;;;;;;;15.50;99.90;;;;;;5083150;28;19920;-67
2022/05/02 16:10:29;;;;;;;;;;;15.50;99.90;;;;;;5094020;28;20338;-65
2022/05/02 16:12:43;;;;;;;;;;;15.40;99.90;;;;;;5082972;28;19955;-65
2022/05/02 16:15:12;;;;;;;;;;;15.40;99.90;;;;;;5083242;28;19926;-66
2022/05/02 16:17:39;;;;;;;;;;;15.40;99.90;;;;;;5083495;28;19986;-65